createdAt,value
2019-05-09T00:01:38.304Z,3.10
2019-05-09T00:04:06.823Z,2.85
2019-05-09T00:06:43.114Z,3.15
2019-05-09T00:09:13.891Z,3.30
2019-05-09T00:11:46.084Z,3.42
2019-05-09T00:14:19.104Z,3.20
2019-05-09T00:16:48.304Z,2.85
2019-05-09T00:19:18.584Z,3.35
2019-05-09T00:21:56.404Z,3.12
2019-05-09T00:24:25.424Z,3.25
2019-05-09T00:26:55.064Z,3.02
2019-05-09T00:29:37.224Z,3.37
2019-05-09T00:32:13.715Z,3.20
2019-05-09T00:34:50.364Z,3.20
2019-05-09T00:37:20.525Z,3.22
2019-05-09T00:39:49.644Z,2.90
2019-05-09T00:42:24.047Z,3.55
2019-05-09T00:45:00.004Z,2.83
2019-05-09T00:47:29.764Z,2.72
2019-05-09T00:49:58.523Z,2.95
2019-05-09T00:52:27.685Z,3.17
2019-05-09T00:54:58.913Z,3.15
2019-05-09T00:57:33.747Z,2.87
2019-05-09T01:00:08.238Z,2.87
2019-05-09T01:02:37.703Z,3.08
2019-05-09T01:05:07.124Z,2.83
2019-05-09T01:07:36.163Z,2.95
2019-05-09T01:10:06.787Z,3.00
2019-05-09T01:12:36.045Z,3.27
2019-05-09T01:15:07.103Z,3.05
2019-05-09T01:17:37.625Z,3.35
2019-05-09T01:20:08.964Z,2.95
2019-05-09T01:22:37.765Z,2.95
2019-05-09T01:25:10.457Z,2.85
2019-05-09T01:27:39.618Z,3.00
2019-05-09T01:30:10.497Z,3.22
2019-05-09T01:32:43.361Z,3.00
2019-05-09T01:35:13.195Z,2.90
2019-05-09T01:37:43.413Z,3.22
2019-05-09T01:40:13.677Z,3.08
2019-05-09T01:42:43.238Z,3.00
2019-05-09T01:45:14.114Z,2.90
2019-05-09T01:47:43.126Z,2.80
2019-05-09T01:50:14.008Z,2.98
2019-05-09T01:52:44.521Z,3.15
2019-05-09T01:57:45.696Z,2.67
2019-05-09T02:00:13.458Z,2.92
2019-05-09T02:02:43.323Z,2.90
2019-05-09T02:05:13.574Z,2.93
2019-05-09T02:07:43.844Z,2.70
2019-05-09T02:10:14.411Z,3.10
2019-05-09T02:12:43.298Z,2.90
2019-05-09T02:15:28.058Z,2.95
2019-05-09T02:18:05.365Z,2.83
2019-05-09T02:20:35.918Z,2.98
2019-05-09T02:23:06.098Z,3.00
2019-05-09T02:25:34.797Z,2.72
2019-05-09T02:28:06.198Z,3.10
2019-05-09T02:30:36.039Z,2.50
2019-05-09T02:33:07.146Z,2.55
2019-05-09T02:38:05.524Z,2.75
2019-05-09T02:40:34.385Z,2.50
2019-05-09T02:43:03.619Z,2.90
2019-05-09T02:45:34.058Z,2.70
2019-05-09T02:48:02.919Z,2.83
2019-05-09T02:50:31.559Z,2.37
2019-05-09T02:53:00.706Z,2.62
2019-05-09T02:55:29.698Z,2.60
2019-05-09T02:58:00.939Z,2.50
2019-05-09T03:00:40.308Z,2.80
2019-05-09T03:03:15.208Z,2.50
2019-05-09T03:05:48.514Z,2.60
2019-05-09T03:08:19.277Z,2.70
2019-05-09T03:10:49.174Z,2.50
2019-05-09T03:13:21.645Z,2.77
2019-05-09T03:15:51.918Z,2.90
2019-05-09T03:18:21.670Z,2.35
2019-05-09T03:21:05.113Z,2.35
2019-05-09T03:23:33.830Z,3.00
2019-05-09T03:26:02.419Z,2.62
2019-05-09T03:28:34.419Z,2.52
2019-05-09T03:31:09.421Z,2.52
2019-05-09T03:33:40.587Z,2.50
2019-05-09T03:36:07.938Z,2.50
2019-05-09T03:38:37.703Z,2.55
2019-05-09T03:41:11.338Z,2.50
2019-05-09T03:43:40.018Z,2.90
2019-05-09T03:46:21.741Z,2.65
2019-05-09T03:48:52.338Z,2.47
2019-05-09T03:51:23.838Z,2.40
2019-05-09T03:53:52.578Z,2.67
2019-05-09T03:56:29.278Z,2.55
2019-05-09T03:58:58.378Z,2.67
2019-05-09T04:01:30.419Z,2.60
2019-05-09T04:03:59.558Z,2.50
2019-05-09T04:06:29.418Z,2.92
2019-05-09T04:08:58.656Z,2.80
2019-05-09T04:11:27.676Z,2.75
2019-05-09T04:14:01.838Z,2.47
2019-05-09T04:16:32.998Z,2.30
2019-05-09T04:19:02.218Z,2.40
2019-05-09T04:21:34.041Z,2.52
2019-05-09T04:24:02.819Z,2.42
2019-05-09T04:26:33.138Z,2.70
2019-05-09T04:29:02.398Z,2.42
2019-05-09T04:31:31.359Z,2.30
2019-05-09T04:34:01.438Z,2.40
2019-05-09T04:36:39.226Z,2.80
2019-05-09T04:39:18.233Z,2.33
2019-05-09T04:41:44.358Z,2.40
2019-05-09T04:46:48.098Z,2.47
2019-05-09T04:49:19.113Z,3.15
2019-05-09T04:51:48.068Z,2.58
2019-05-09T04:54:22.321Z,2.33
2019-05-09T04:56:57.235Z,2.40
2019-05-09T04:59:24.859Z,2.80
2019-05-09T05:02:01.779Z,2.25
2019-05-09T05:04:38.142Z,2.40
2019-05-09T05:07:21.179Z,2.45
2019-05-09T05:09:52.942Z,2.47
2019-05-09T05:12:25.155Z,2.37
2019-05-09T05:14:59.198Z,2.30
2019-05-09T05:17:33.118Z,2.70
2019-05-09T05:20:04.078Z,2.50
2019-05-09T05:22:34.120Z,2.65
2019-05-09T05:25:04.022Z,2.90
2019-05-09T05:27:38.198Z,2.50
2019-05-09T05:30:07.695Z,2.58
2019-05-09T05:32:38.610Z,2.60
2019-05-09T05:35:11.338Z,2.47
2019-05-09T05:37:40.217Z,2.90
2019-05-09T05:40:10.838Z,2.33
2019-05-09T05:42:43.509Z,2.42
2019-05-09T05:45:12.798Z,2.50
2019-05-09T05:47:49.301Z,2.62
2019-05-09T05:50:18.546Z,2.37
2019-05-09T05:52:48.298Z,2.33
2019-05-09T05:55:18.218Z,2.40
2019-05-09T05:57:48.159Z,2.58
2019-05-09T06:00:18.694Z,2.80
2019-05-09T06:02:48.117Z,2.60
2019-05-09T06:05:18.835Z,2.70
2019-05-09T06:10:18.665Z,2.50
2019-05-09T06:12:48.241Z,2.50
2019-05-09T06:15:19.085Z,2.58
2019-05-09T06:20:18.011Z,2.58
2019-05-09T06:22:49.998Z,2.70
2019-05-09T06:25:21.701Z,2.30
2019-05-09T06:27:51.779Z,2.60
2019-05-09T06:30:28.118Z,2.52
2019-05-09T06:32:58.124Z,2.40
2019-05-09T06:35:30.378Z,2.62
2019-05-09T06:38:00.660Z,2.70
2019-05-09T06:40:33.357Z,2.50
2019-05-09T06:43:03.778Z,2.45
2019-05-09T06:45:41.354Z,2.62
2019-05-09T06:48:08.138Z,2.40
2019-05-09T06:50:37.880Z,4.30
2019-05-09T06:53:08.237Z,8.85
2019-05-09T06:55:38.583Z,10.43
2019-05-09T06:58:27.566Z,12.00
2019-05-09T07:01:00.801Z,17.05
2019-05-09T07:03:37.538Z,14.93
2019-05-09T07:06:13.966Z,13.60
2019-05-09T07:08:49.718Z,15.53
2019-05-09T07:11:20.318Z,14.25
2019-05-09T07:13:51.759Z,14.53
2019-05-09T07:16:22.740Z,14.73
2019-05-09T07:18:52.519Z,13.20
2019-05-09T07:21:21.558Z,11.97
2019-05-09T07:23:50.659Z,12.15
2019-05-09T07:26:22.158Z,12.47
2019-05-09T07:28:50.699Z,10.85
2019-05-09T07:31:37.910Z,11.95
2019-05-09T07:34:08.710Z,11.40
2019-05-09T07:36:38.366Z,11.15
2019-05-09T07:39:09.046Z,11.83
2019-05-09T07:41:39.618Z,10.35
2019-05-09T07:44:10.565Z,11.50
2019-05-09T07:47:02.179Z,10.45
2019-05-09T07:49:32.919Z,10.68
2019-05-09T07:54:31.721Z,10.65
2019-05-09T07:57:02.258Z,10.60
2019-05-09T07:59:31.339Z,9.60
2019-05-09T08:02:00.399Z,9.70
2019-05-09T08:04:33.399Z,9.63
2019-05-09T08:07:03.671Z,9.95
2019-05-09T08:09:32.892Z,11.50
2019-05-09T08:12:01.839Z,9.28
2019-05-09T08:14:33.499Z,9.43
2019-05-09T08:17:02.726Z,9.75
2019-05-09T08:19:31.909Z,9.65
2019-05-09T08:22:02.658Z,9.00
2019-05-09T08:27:02.373Z,8.75
2019-05-09T08:29:31.418Z,8.60
2019-05-09T08:32:02.998Z,9.40
2019-05-09T08:34:34.759Z,9.43
2019-05-09T08:37:03.680Z,8.90
2019-05-09T08:39:38.258Z,8.60
2019-05-09T08:42:08.463Z,8.40
2019-05-09T08:47:07.891Z,8.15
2019-05-09T08:49:38.960Z,8.53
2019-05-09T08:52:16.046Z,7.87
2019-05-09T08:54:44.979Z,8.85
2019-05-09T08:57:14.846Z,8.05
2019-05-09T08:59:47.046Z,8.57
2019-05-09T09:02:19.496Z,8.45
2019-05-09T09:04:48.605Z,7.60
2019-05-09T09:09:48.244Z,8.40
2019-05-09T09:12:30.324Z,7.30
2019-05-09T09:14:55.658Z,7.90
2019-05-09T09:17:29.338Z,8.23
2019-05-09T09:19:58.505Z,7.22
2019-05-09T09:22:28.499Z,7.85
2019-05-09T09:24:59.082Z,7.87
2019-05-09T09:27:30.626Z,7.15
2019-05-09T09:30:15.527Z,6.92
2019-05-09T09:32:30.180Z,6.95
2019-05-09T09:34:59.118Z,7.47
2019-05-09T09:37:44.740Z,7.20
2019-05-09T09:40:01.839Z,6.87
2019-05-09T09:42:51.399Z,6.80
2019-05-09T09:45:21.586Z,6.97
2019-05-09T09:47:52.658Z,6.60
2019-05-09T09:50:22.478Z,6.83
2019-05-09T09:52:51.720Z,6.90
2019-05-09T09:55:20.539Z,6.80
2019-05-09T09:57:49.744Z,6.70
2019-05-09T10:00:42.838Z,6.37
2019-05-09T10:03:13.758Z,6.42
2019-05-09T10:05:42.619Z,6.42
2019-05-09T10:08:13.991Z,6.67
2019-05-09T10:10:44.121Z,6.78
2019-05-09T10:13:13.485Z,6.37
2019-05-09T10:15:49.899Z,6.75
2019-05-09T10:18:38.169Z,6.30
2019-05-09T10:21:17.558Z,6.72
2019-05-09T10:23:48.299Z,6.17
2019-05-09T10:26:17.878Z,6.30
2019-05-09T10:28:48.677Z,6.65
2019-05-09T10:34:11.187Z,6.10
2019-05-09T10:36:42.046Z,6.40
2019-05-09T10:41:40.759Z,5.95
2019-05-09T10:44:11.258Z,5.50
2019-05-09T10:46:57.243Z,6.15
2019-05-09T10:49:21.263Z,6.42
2019-05-09T10:51:51.918Z,5.70
2019-05-09T10:54:20.798Z,5.20
2019-05-09T10:56:52.518Z,5.65
2019-05-09T10:59:21.668Z,5.83
2019-05-09T11:01:52.578Z,5.70
2019-05-09T11:04:25.538Z,5.80
2019-05-09T11:06:58.271Z,5.58
2019-05-09T11:09:30.286Z,4.97
2019-05-09T11:12:01.299Z,5.28
2019-05-09T11:14:36.978Z,5.37
2019-05-09T11:17:10.918Z,4.85
2019-05-09T11:19:35.641Z,5.08
2019-05-09T11:22:04.586Z,5.15
2019-05-09T11:24:45.374Z,6.28
2019-05-09T11:29:34.318Z,5.10
2019-05-09T11:34:33.138Z,4.72
2019-05-09T11:37:03.766Z,5.00
2019-05-09T11:39:41.382Z,4.85
2019-05-09T11:42:06.998Z,5.05
2019-05-09T11:44:38.533Z,4.65
2019-05-09T11:47:25.812Z,4.53
2019-05-09T11:49:39.071Z,4.42
2019-05-09T11:52:11.400Z,5.00
2019-05-09T11:54:40.166Z,4.67
2019-05-09T11:57:08.998Z,5.08
2019-05-09T11:59:39.698Z,4.58
2019-05-09T12:02:09.906Z,4.87
2019-05-09T12:04:40.639Z,4.30
2019-05-09T12:09:38.627Z,4.45
2019-05-09T12:12:09.179Z,4.78
2019-05-09T12:14:38.818Z,4.72
2019-05-09T12:17:09.344Z,4.33
2019-05-09T12:19:38.402Z,4.42
2019-05-09T12:22:09.438Z,4.20
2019-05-09T12:24:39.146Z,4.42
2019-05-09T12:27:09.918Z,4.30
2019-05-09T12:32:10.658Z,4.10
2019-05-09T12:34:39.380Z,4.30
2019-05-09T12:37:09.594Z,4.10
2019-05-09T12:39:41.699Z,4.08
2019-05-09T12:42:11.798Z,4.37
2019-05-09T12:44:40.746Z,4.58
2019-05-09T12:47:11.882Z,4.08
2019-05-09T12:49:40.998Z,3.83
2019-05-09T12:52:10.586Z,3.85
2019-05-09T12:54:39.409Z,3.83
2019-05-09T12:57:09.760Z,4.30
2019-05-09T12:59:48.579Z,3.90
2019-05-09T13:02:12.098Z,4.50
2019-05-09T13:04:40.954Z,4.03
2019-05-09T13:07:11.258Z,4.22
2019-05-09T13:09:40.938Z,4.00
2019-05-09T13:12:09.858Z,4.10
2019-05-09T13:14:40.458Z,4.12
2019-05-09T13:17:14.738Z,4.40
2019-05-09T13:19:48.228Z,4.37
2019-05-09T13:22:18.517Z,4.00
2019-05-09T13:24:50.338Z,3.85
2019-05-09T13:27:19.398Z,4.00
2019-05-09T13:29:50.045Z,3.95
2019-05-09T13:32:20.299Z,4.08
2019-05-09T13:34:53.239Z,3.92
2019-05-09T13:37:22.358Z,3.62
2019-05-09T13:39:51.038Z,4.08
2019-05-09T13:42:20.279Z,3.77
2019-05-09T13:44:48.958Z,3.70
2019-05-09T13:47:18.919Z,4.08
2019-05-09T13:49:48.737Z,4.00
2019-05-09T13:52:19.198Z,3.97
2019-05-09T13:54:48.438Z,3.70
2019-05-09T13:57:18.787Z,4.00
2019-05-09T13:59:49.946Z,3.77
2019-05-09T14:02:19.317Z,4.05
2019-05-09T14:04:48.829Z,3.90
2019-05-09T14:07:19.394Z,3.60
2019-05-09T14:09:50.297Z,4.03
2019-05-09T14:14:53.590Z,3.80
2019-05-09T14:17:44.165Z,3.60
2019-05-09T14:19:54.904Z,4.20
2019-05-09T14:22:23.738Z,3.95
2019-05-09T14:24:58.388Z,4.15
2019-05-09T14:27:28.519Z,4.22
2019-05-09T14:29:59.333Z,3.98
2019-05-09T14:32:31.139Z,3.77
2019-05-09T14:34:59.522Z,4.03
2019-05-09T14:37:29.660Z,4.03
2019-05-09T14:40:04.434Z,3.80
2019-05-09T14:42:32.358Z,3.98
2019-05-09T14:45:01.323Z,3.70
2019-05-09T14:47:31.958Z,4.08
2019-05-09T14:50:02.652Z,3.85
2019-05-09T14:55:02.141Z,4.53
2019-05-09T14:57:31.541Z,4.40
2019-05-09T15:00:01.640Z,4.35
2019-05-09T15:02:32.400Z,4.15
2019-05-09T15:07:31.287Z,4.20
2019-05-09T15:10:00.398Z,3.92
2019-05-09T15:12:31.027Z,3.80
2019-05-09T15:15:00.128Z,8.60
2019-05-09T15:17:32.138Z,14.18
2019-05-09T15:20:01.300Z,14.05
2019-05-09T15:22:30.081Z,30.10
2019-05-09T15:24:59.538Z,53.15
2019-05-09T15:27:28.719Z,65.85
2019-05-09T15:29:59.218Z,80.55
2019-05-09T15:32:28.598Z,78.55
2019-05-09T15:34:57.879Z,73.60
2019-05-09T15:37:30.158Z,68.92
2019-05-09T15:40:00.286Z,65.22
2019-05-09T15:42:31.138Z,57.40
2019-05-09T15:47:37.639Z,51.58
2019-05-09T15:50:19.217Z,50.75
2019-05-09T15:52:40.967Z,48.75
2019-05-09T15:55:11.126Z,47.20
2019-05-09T15:57:41.658Z,47.10
2019-05-09T16:00:11.739Z,43.78
2019-05-09T16:02:41.003Z,41.58
2019-05-09T16:05:10.657Z,39.63
2019-05-09T16:07:40.499Z,38.53
2019-05-09T16:10:09.727Z,39.30
2019-05-09T16:12:38.738Z,36.93
2019-05-09T16:15:11.419Z,36.73
2019-05-09T16:17:41.921Z,37.20
2019-05-09T16:20:11.567Z,31.93
2019-05-09T16:22:42.021Z,30.55
2019-05-09T16:25:11.179Z,27.22
2019-05-09T16:27:40.266Z,26.93
2019-05-09T16:30:09.639Z,25.75
2019-05-09T16:32:39.860Z,24.05
2019-05-09T16:35:08.938Z,25.25
2019-05-09T16:37:56.846Z,23.35
2019-05-09T16:40:09.718Z,24.12
2019-05-09T16:42:39.255Z,22.67
2019-05-09T16:45:11.487Z,22.73
2019-05-09T16:47:41.199Z,23.10
2019-05-09T16:50:12.220Z,21.87
2019-05-09T16:52:43.587Z,21.37
2019-05-09T16:55:18.088Z,22.48
2019-05-09T16:57:49.578Z,21.82
2019-05-09T17:00:21.918Z,21.48
2019-05-09T17:02:52.678Z,20.72
2019-05-09T17:07:55.000Z,19.90
2019-05-09T17:10:24.378Z,20.97
2019-05-09T17:12:53.138Z,20.17
2019-05-09T17:15:22.498Z,19.02
2019-05-09T17:17:51.901Z,18.45
2019-05-09T17:20:24.152Z,18.70
2019-05-09T17:23:14.410Z,18.25
2019-05-09T17:25:39.598Z,17.67
2019-05-09T17:28:09.362Z,18.15
2019-05-09T17:30:39.038Z,17.73
2019-05-09T17:33:08.016Z,16.70
2019-05-09T17:35:38.659Z,16.82
2019-05-09T17:40:42.265Z,17.23
2019-05-09T17:43:18.316Z,16.20
2019-05-09T17:45:52.126Z,15.88
2019-05-09T17:48:28.283Z,16.75
2019-05-09T17:50:59.018Z,16.10
2019-05-09T17:53:33.424Z,15.75
2019-05-09T17:56:03.467Z,14.93
2019-05-09T17:58:38.036Z,15.80
2019-05-09T18:01:10.039Z,16.02
2019-05-09T18:03:40.659Z,15.25
2019-05-09T18:06:13.262Z,15.38
2019-05-09T18:08:48.431Z,14.98
2019-05-09T18:11:17.591Z,14.83
2019-05-09T18:13:48.079Z,15.00
2019-05-09T18:18:50.098Z,13.60
2019-05-09T18:21:19.063Z,15.03
2019-05-09T18:23:49.157Z,13.90
2019-05-09T18:26:18.663Z,14.65
2019-05-09T18:28:49.538Z,14.13
2019-05-09T18:33:54.482Z,12.63
2019-05-09T18:36:23.826Z,14.10
2019-05-09T18:38:53.560Z,13.60
2019-05-09T18:41:22.638Z,14.40
2019-05-09T18:43:51.919Z,12.93
2019-05-09T18:46:23.626Z,13.30
2019-05-09T18:48:52.538Z,13.45
2019-05-09T18:51:22.318Z,12.78
2019-05-09T18:53:54.038Z,13.10
2019-05-09T18:56:24.418Z,12.73
2019-05-09T18:58:53.237Z,12.95
2019-05-09T19:01:22.150Z,12.37
2019-05-09T19:03:55.619Z,12.37
2019-05-09T19:06:25.928Z,12.45
2019-05-09T19:08:55.265Z,12.25
2019-05-09T19:11:24.158Z,13.30
2019-05-09T19:13:53.418Z,13.45
2019-05-09T19:16:23.840Z,12.35
2019-05-09T19:18:59.146Z,14.15
2019-05-09T19:21:29.742Z,13.03
2019-05-09T19:24:00.198Z,13.10
2019-05-09T19:26:39.419Z,13.45
2019-05-09T19:29:10.460Z,12.68
2019-05-09T19:31:42.219Z,12.50
2019-05-09T19:34:12.818Z,12.98
2019-05-09T19:36:41.699Z,12.90
2019-05-09T19:39:10.860Z,11.93
2019-05-09T19:41:40.027Z,13.00
2019-05-09T19:44:09.362Z,12.50
2019-05-09T19:46:40.586Z,12.35
2019-05-09T19:49:09.303Z,12.35
2019-05-09T19:51:39.738Z,11.80
2019-05-09T19:54:08.772Z,12.30
2019-05-09T19:56:39.646Z,12.53
2019-05-09T19:59:10.400Z,12.65
2019-05-09T20:01:39.239Z,11.95
2019-05-09T20:04:09.618Z,12.00
2019-05-09T20:06:57.386Z,12.07
2019-05-09T20:09:37.663Z,12.30
2019-05-09T20:12:33.439Z,12.65
2019-05-09T20:15:22.676Z,11.48
2019-05-09T20:17:52.706Z,12.33
2019-05-09T20:20:21.883Z,11.50
2019-05-09T20:22:55.578Z,12.28
2019-05-09T20:25:24.952Z,11.63
2019-05-09T20:27:55.281Z,12.70
2019-05-09T20:30:25.780Z,11.78
2019-05-09T20:32:54.598Z,11.90
2019-05-09T20:35:25.040Z,12.63
2019-05-09T20:37:56.761Z,11.73
2019-05-09T20:40:26.960Z,12.03
2019-05-09T20:42:56.251Z,11.78
2019-05-09T20:45:31.418Z,11.28
2019-05-09T20:48:00.698Z,12.30
2019-05-09T20:50:30.898Z,11.78
2019-05-09T20:53:09.040Z,11.83
2019-05-09T20:55:30.606Z,11.30
2019-05-09T20:58:01.098Z,11.00
2019-05-09T21:00:31.819Z,10.78
2019-05-09T21:05:30.383Z,11.08
2019-05-09T21:08:00.998Z,11.40
2019-05-09T21:10:30.278Z,11.40
2019-05-09T21:12:59.518Z,11.48
2019-05-09T21:15:29.206Z,11.12
2019-05-09T21:17:58.847Z,9.78
2019-05-09T21:20:27.841Z,10.65
2019-05-09T21:22:58.559Z,10.40
2019-05-09T21:27:57.119Z,10.10
2019-05-09T21:30:26.302Z,10.75
2019-05-09T21:32:57.058Z,10.32
2019-05-09T21:37:56.620Z,9.90
2019-05-09T21:40:32.118Z,10.93
2019-05-09T21:43:02.198Z,10.63
2019-05-09T21:45:31.183Z,10.53
2019-05-09T21:48:00.238Z,10.72
2019-05-09T21:50:29.249Z,9.63
2019-05-09T21:52:58.761Z,11.05
2019-05-09T21:55:27.979Z,10.38
2019-05-09T21:57:57.379Z,9.40
2019-05-09T22:00:30.398Z,9.63
2019-05-09T22:03:01.160Z,9.65
2019-05-09T22:07:58.346Z,9.60
2019-05-09T22:10:27.379Z,9.28
2019-05-09T22:12:56.741Z,9.40
2019-05-09T22:15:30.178Z,9.70
2019-05-09T22:18:01.778Z,9.98
2019-05-09T22:20:31.746Z,9.50
2019-05-09T22:23:01.221Z,9.73
2019-05-09T22:25:30.038Z,9.80
2019-05-09T22:27:59.238Z,10.18
2019-05-09T22:30:29.418Z,9.95
2019-05-09T22:32:59.927Z,9.70
2019-05-09T22:35:29.039Z,8.83
2019-05-09T22:38:01.578Z,9.20
2019-05-09T22:40:33.389Z,9.30
2019-05-09T22:43:05.499Z,9.00
2019-05-09T22:45:36.138Z,8.65
2019-05-09T22:48:06.658Z,9.68
2019-05-09T22:50:35.470Z,8.85
2019-05-09T22:53:06.528Z,8.40
2019-05-09T22:55:36.998Z,8.83
2019-05-09T22:58:07.643Z,9.35
2019-05-09T23:03:05.158Z,8.85
2019-05-09T23:05:35.958Z,9.18
2019-05-09T23:10:34.838Z,9.18
2019-05-09T23:13:05.006Z,8.45
2019-05-09T23:15:34.617Z,9.35
2019-05-09T23:18:05.180Z,9.08
2019-05-09T23:20:42.825Z,8.43
2019-05-09T23:23:28.381Z,8.70
2019-05-09T23:25:59.103Z,8.45
2019-05-09T23:28:28.678Z,8.50
2019-05-09T23:31:01.801Z,8.00
2019-05-09T23:33:33.851Z,8.60
2019-05-09T23:36:02.920Z,8.65
2019-05-09T23:38:31.806Z,8.38
2019-05-09T23:41:02.639Z,8.83
2019-05-09T23:46:02.999Z,8.13
2019-05-09T23:48:32.205Z,8.20
2019-05-09T23:51:01.145Z,7.60
2019-05-09T23:53:32.377Z,7.95
2019-05-09T23:56:19.158Z,8.25
2019-05-09T23:59:07.278Z,7.92
